createdAt,value
2022-08-16T00:00:46.661Z,44.95
2022-08-16T00:03:14.891Z,44.85
2022-08-16T00:05:48.409Z,44.36
2022-08-16T00:08:35.777Z,45.14
2022-08-16T00:11:06.640Z,44.87
2022-08-16T00:13:41.737Z,44.44
2022-08-16T00:17:00.528Z,44.70
2022-08-16T00:19:01.287Z,45.02
2022-08-16T00:21:29.327Z,45.24
2022-08-16T00:23:56.694Z,46.58
2022-08-16T00:26:35.740Z,46.66
2022-08-16T00:29:16.773Z,46.74
2022-08-16T00:32:01.372Z,46.62
2022-08-16T00:34:44.526Z,46.10
2022-08-16T00:37:58.285Z,45.75
2022-08-16T00:40:34.045Z,46.18
2022-08-16T00:43:19.255Z,45.53
2022-08-16T00:46:33.184Z,46.25
2022-08-16T00:48:55.400Z,45.52
2022-08-16T00:51:26.410Z,45.01
2022-08-16T00:54:00.050Z,45.33
2022-08-16T00:56:57.824Z,45.24
2022-08-16T00:59:21.800Z,45.52
2022-08-16T01:01:51.579Z,45.41
2022-08-16T01:04:25.804Z,45.81
2022-08-16T01:07:04.769Z,45.77
2022-08-16T01:09:38.769Z,46.25
2022-08-16T01:12:11.459Z,46.28
2022-08-16T01:14:58.620Z,46.88
2022-08-16T01:17:28.999Z,46.99
2022-08-16T01:20:23.934Z,48.11
2022-08-16T01:23:13.169Z,47.78
2022-08-16T01:26:00.071Z,47.13
2022-08-16T01:28:38.849Z,47.78
2022-08-16T01:31:14.878Z,48.39
2022-08-16T01:33:44.721Z,48.59
2022-08-16T01:36:13.166Z,48.49
2022-08-16T01:38:53.021Z,48.33
2022-08-16T01:41:30.390Z,48.10
2022-08-16T01:44:01.019Z,48.19
2022-08-16T01:46:39.204Z,48.29
2022-08-16T01:49:43.724Z,48.33
2022-08-16T01:52:27.647Z,48.27
2022-08-16T01:55:05.261Z,48.37
2022-08-16T01:57:35.552Z,47.34
2022-08-16T02:00:19.277Z,47.02
2022-08-16T02:02:52.122Z,46.56
2022-08-16T02:05:23.420Z,46.27
2022-08-16T02:07:52.126Z,45.69
2022-08-16T02:10:21.680Z,45.60
2022-08-16T02:12:56.160Z,45.85
2022-08-16T02:15:29.899Z,45.55
2022-08-16T02:18:01.445Z,45.57
2022-08-16T02:20:36.749Z,45.48
2022-08-16T02:23:09.971Z,45.87
2022-08-16T02:25:51.068Z,45.59
2022-08-16T02:28:20.679Z,46.06
2022-08-16T02:30:52.207Z,45.89
2022-08-16T02:33:24.902Z,46.09
2022-08-16T02:36:14.289Z,45.81
2022-08-16T02:38:42.528Z,45.59
2022-08-16T02:41:12.121Z,45.18
2022-08-16T02:43:40.670Z,45.40
2022-08-16T02:46:08.829Z,45.07
2022-08-16T02:48:39.012Z,45.23
2022-08-16T02:51:10.811Z,45.17
2022-08-16T02:53:45.429Z,45.30
2022-08-16T02:56:15.622Z,45.12
2022-08-16T02:58:46.324Z,45.12
2022-08-16T03:01:24.988Z,45.21
2022-08-16T03:04:41.105Z,45.22
2022-08-16T03:06:56.552Z,45.32
2022-08-16T03:09:36.959Z,45.26
2022-08-16T03:12:05.272Z,45.07
2022-08-16T03:14:34.230Z,45.32
2022-08-16T03:17:03.893Z,45.25
2022-08-16T03:19:56.445Z,45.27
2022-08-16T03:22:28.894Z,45.52
2022-08-16T03:25:07.607Z,45.59
2022-08-16T03:27:41.054Z,46.21
2022-08-16T03:30:21.323Z,45.80
2022-08-16T03:33:09.342Z,45.25
2022-08-16T03:35:46.560Z,45.30
2022-08-16T03:38:33.790Z,44.82
2022-08-16T03:41:25.374Z,45.02
2022-08-16T03:43:58.373Z,44.63
2022-08-16T03:46:47.537Z,44.46
2022-08-16T03:49:20.279Z,44.27
2022-08-16T03:51:52.222Z,44.29
2022-08-16T03:54:26.169Z,44.01
2022-08-16T03:56:57.280Z,44.25
2022-08-16T03:59:30.312Z,44.24
2022-08-16T04:02:22.048Z,44.48
2022-08-16T04:04:52.100Z,44.70
2022-08-16T04:07:19.229Z,44.53
2022-08-16T04:09:47.889Z,44.99
2022-08-16T04:12:53.763Z,44.65
2022-08-16T04:15:02.989Z,45.40
2022-08-16T04:17:37.000Z,45.84
2022-08-16T04:20:11.086Z,45.54
2022-08-16T04:22:57.279Z,45.77
2022-08-16T04:25:28.940Z,45.11
2022-08-16T04:27:57.149Z,45.77
2022-08-16T04:30:44.507Z,46.86
2022-08-16T04:33:14.970Z,46.88
2022-08-16T04:35:43.311Z,46.71
2022-08-16T04:38:21.274Z,46.74
2022-08-16T04:40:52.649Z,47.03
2022-08-16T04:43:21.572Z,46.54
2022-08-16T04:46:00.412Z,46.16
2022-08-16T04:48:33.905Z,45.88
2022-08-16T04:51:11.575Z,47.10
2022-08-16T04:53:47.477Z,48.38
2022-08-16T04:56:18.042Z,48.40
2022-08-16T04:58:46.947Z,47.89
2022-08-16T05:01:19.378Z,47.44
2022-08-16T05:04:01.114Z,47.13
2022-08-16T05:06:42.480Z,47.43
2022-08-16T05:09:23.174Z,47.02
2022-08-16T05:11:57.421Z,46.72
2022-08-16T05:14:46.167Z,47.43
2022-08-16T05:17:18.745Z,48.05
2022-08-16T05:19:57.624Z,48.13
2022-08-16T05:22:38.709Z,47.80
2022-08-16T05:25:09.181Z,47.71
2022-08-16T05:27:42.978Z,48.29
2022-08-16T05:30:35.783Z,47.84
2022-08-16T05:33:06.011Z,47.79
2022-08-16T05:35:36.298Z,48.16
2022-08-16T05:38:32.791Z,48.78
2022-08-16T05:41:09.538Z,49.52
2022-08-16T05:43:43.787Z,49.38
2022-08-16T05:46:29.760Z,49.30
2022-08-16T05:49:08.511Z,48.98
2022-08-16T05:51:40.271Z,48.19
2022-08-16T05:54:11.587Z,47.48
2022-08-16T05:56:43.176Z,46.93
2022-08-16T05:59:11.092Z,46.43
2022-08-16T06:01:39.410Z,46.39
2022-08-16T06:04:13.146Z,46.52
2022-08-16T06:06:56.682Z,45.89
2022-08-16T06:09:42.840Z,44.95
2022-08-16T06:12:27.430Z,43.50
2022-08-16T06:15:04.176Z,44.02
2022-08-16T06:17:42.465Z,43.46
2022-08-16T06:20:24.274Z,42.57
2022-08-16T06:23:03.127Z,42.70
2022-08-16T06:25:44.221Z,42.46
2022-08-16T06:28:36.612Z,42.88
2022-08-16T06:31:12.173Z,42.05
2022-08-16T06:33:44.748Z,42.07
2022-08-16T06:36:15.438Z,41.63
2022-08-16T06:38:56.109Z,41.55
2022-08-16T06:41:44.159Z,41.20
2022-08-16T06:44:24.599Z,41.41
2022-08-16T06:46:58.439Z,40.86
2022-08-16T06:49:30.521Z,40.41
2022-08-16T06:52:02.671Z,39.83
2022-08-16T06:54:35.831Z,40.74
2022-08-16T06:57:03.021Z,40.79
2022-08-16T06:59:48.509Z,39.22
2022-08-16T07:02:32.806Z,39.27
2022-08-16T07:05:04.078Z,37.99
2022-08-16T07:07:47.999Z,37.88
2022-08-16T07:10:19.930Z,37.06
2022-08-16T07:13:03.462Z,37.04
2022-08-16T07:15:34.770Z,36.61
2022-08-16T07:18:04.358Z,35.85
2022-08-16T07:20:35.981Z,35.83
2022-08-16T07:23:16.070Z,35.45
2022-08-16T07:25:55.568Z,35.76
2022-08-16T07:28:26.380Z,35.85
2022-08-16T07:30:55.820Z,35.78
2022-08-16T07:33:53.350Z,35.86
2022-08-16T07:36:30.807Z,35.29
2022-08-16T07:38:58.863Z,35.11
2022-08-16T07:41:29.080Z,35.18
2022-08-16T07:44:00.520Z,35.64
2022-08-16T07:46:37.937Z,35.45
2022-08-16T07:49:19.622Z,35.22
2022-08-16T07:51:47.409Z,35.39
2022-08-16T07:54:20.893Z,35.61
2022-08-16T07:57:00.760Z,35.22
2022-08-16T07:59:45.604Z,35.45
2022-08-16T08:02:20.538Z,35.10
2022-08-16T08:04:56.509Z,35.70
2022-08-16T08:07:27.480Z,35.39
2022-08-16T08:09:57.657Z,35.28
2022-08-16T08:12:32.127Z,34.70
2022-08-16T08:15:09.581Z,34.68
2022-08-16T08:17:42.960Z,34.42
2022-08-16T08:20:28.667Z,34.13
2022-08-16T08:23:00.608Z,34.20
2022-08-16T08:25:55.384Z,34.21
2022-08-16T08:28:22.219Z,34.17
2022-08-16T08:31:01.280Z,34.87
2022-08-16T08:33:33.969Z,34.09
2022-08-16T08:36:07.598Z,34.91
2022-08-16T08:38:45.826Z,34.13
2022-08-16T08:41:18.900Z,33.40
2022-08-16T08:43:50.362Z,33.40
2022-08-16T08:46:21.791Z,32.88
2022-08-16T08:49:01.914Z,32.88
2022-08-16T08:51:38.552Z,32.85
2022-08-16T08:54:11.589Z,33.03
2022-08-16T08:56:45.724Z,32.68
2022-08-16T08:59:46.279Z,32.78
2022-08-16T09:02:19.402Z,32.78
2022-08-16T09:04:52.718Z,32.76
2022-08-16T09:07:23.828Z,31.91
2022-08-16T09:10:00.885Z,31.38
2022-08-16T09:12:46.612Z,31.41
2022-08-16T09:15:21.828Z,30.86
2022-08-16T09:17:56.135Z,31.59
2022-08-16T09:20:29.577Z,31.57
2022-08-16T09:22:57.713Z,31.31
2022-08-16T09:25:39.900Z,31.46
2022-08-16T09:28:13.689Z,31.47
2022-08-16T09:31:17.188Z,31.03
2022-08-16T09:33:45.030Z,30.88
2022-08-16T09:36:32.168Z,30.50
2022-08-16T09:39:02.303Z,30.79
2022-08-16T09:41:30.520Z,30.76
2022-08-16T09:44:02.273Z,30.20
2022-08-16T09:46:49.375Z,30.02
2022-08-16T09:49:19.650Z,30.00
2022-08-16T09:51:51.489Z,29.73
2022-08-16T09:54:21.310Z,29.37
2022-08-16T09:56:52.273Z,30.21
2022-08-16T09:59:25.154Z,30.03
2022-08-16T10:01:53.315Z,30.28
2022-08-16T10:04:31.243Z,30.16
2022-08-16T10:07:15.527Z,30.19
2022-08-16T10:09:54.574Z,30.18
2022-08-16T10:12:44.399Z,30.11
2022-08-16T10:15:17.019Z,29.81
2022-08-16T10:18:01.370Z,29.58
2022-08-16T10:20:33.918Z,28.69
2022-08-16T10:23:06.824Z,28.81
2022-08-16T10:27:20.325Z,28.18
2022-08-16T10:28:29.183Z,28.63
2022-08-16T10:31:00.869Z,28.67
2022-08-16T10:33:33.325Z,28.93
2022-08-16T10:36:04.529Z,28.67
2022-08-16T10:38:36.584Z,28.88
2022-08-16T10:41:08.420Z,29.40
2022-08-16T10:43:39.091Z,31.43
2022-08-16T10:46:33.774Z,32.92
2022-08-16T10:48:56.160Z,33.36
2022-08-16T10:51:34.638Z,35.71
2022-08-16T10:54:29.709Z,37.38
2022-08-16T10:56:59.165Z,37.94
2022-08-16T10:59:38.192Z,38.06
2022-08-16T11:13:57.191Z,45.62
2022-08-16T11:16:26.759Z,46.75
2022-08-16T11:19:04.634Z,47.93
2022-08-16T11:22:11.095Z,49.18
2022-08-16T11:24:41.409Z,49.65
2022-08-16T11:27:24.068Z,50.69
2022-08-16T11:30:00.135Z,50.45
2022-08-16T11:32:32.195Z,51.54
2022-08-16T11:35:14.327Z,50.29
2022-08-16T11:38:46.374Z,52.58
2022-08-16T11:40:58.188Z,53.45
2022-08-16T11:43:34.779Z,54.73
2022-08-16T11:46:44.939Z,55.69
2022-08-16T11:48:53.369Z,56.40
2022-08-16T11:51:20.520Z,56.79
2022-08-16T11:53:47.570Z,56.80
2022-08-16T11:56:14.901Z,56.76
2022-08-16T11:58:51.476Z,56.98
2022-08-16T12:01:29.651Z,57.20
2022-08-16T12:04:11.363Z,57.34
2022-08-16T12:06:40.987Z,57.41
2022-08-16T12:09:08.298Z,57.65
2022-08-16T12:11:37.141Z,58.04
2022-08-16T12:14:06.849Z,58.58
2022-08-16T12:16:35.849Z,58.42
2022-08-16T12:19:05.460Z,58.87
2022-08-16T12:21:35.984Z,58.70
2022-08-16T12:24:21.518Z,59.40
2022-08-16T12:26:51.335Z,59.17
2022-08-16T12:29:19.619Z,59.63
2022-08-16T12:32:01.664Z,59.34
2022-08-16T12:34:34.628Z,59.00
2022-08-16T12:37:04.812Z,59.03
2022-08-16T12:39:33.709Z,58.83
2022-08-16T12:42:01.484Z,57.90
2022-08-16T12:44:31.382Z,57.03
2022-08-16T12:47:17.460Z,56.93
2022-08-16T12:49:45.177Z,55.88
2022-08-16T12:52:32.712Z,55.10
2022-08-16T12:55:00.390Z,53.82
2022-08-16T12:57:36.817Z,53.87
2022-08-16T13:00:13.021Z,53.73
2022-08-16T13:02:54.299Z,53.36
2022-08-16T13:05:22.818Z,53.60
2022-08-16T13:07:53.268Z,53.00
2022-08-16T13:10:37.759Z,51.35
2022-08-16T13:13:09.295Z,50.74
2022-08-16T13:15:51.751Z,49.42
2022-08-16T13:18:33.909Z,49.29
2022-08-16T13:21:01.939Z,48.03
2022-08-16T13:23:31.068Z,46.24
2022-08-16T13:25:58.738Z,46.02
2022-08-16T13:28:26.061Z,44.67
2022-08-16T13:30:55.847Z,44.01
2022-08-16T13:33:31.339Z,43.23
2022-08-16T13:36:00.831Z,39.92
2022-08-16T13:38:37.131Z,37.29
2022-08-16T13:41:11.021Z,29.35
2022-08-16T13:43:39.678Z,31.95
2022-08-16T13:46:07.302Z,30.50
2022-08-16T13:48:43.303Z,31.10
2022-08-16T13:51:16.918Z,30.11
2022-08-16T13:53:59.286Z,30.70
2022-08-16T13:56:31.750Z,29.48
2022-08-16T13:59:19.161Z,29.13
2022-08-16T14:01:55.890Z,29.59
2022-08-16T14:04:34.173Z,28.93
2022-08-16T14:07:04.540Z,27.72
2022-08-16T14:09:34.630Z,26.77
2022-08-16T14:12:04.316Z,26.77
2022-08-16T14:14:37.574Z,26.39
2022-08-16T14:17:05.258Z,25.47
2022-08-16T14:19:36.874Z,24.68
2022-08-16T14:22:30.140Z,24.69
2022-08-16T14:25:00.432Z,23.54
2022-08-16T14:27:30.488Z,23.79
2022-08-16T14:29:59.300Z,22.89
2022-08-16T14:32:33.207Z,22.68
2022-08-16T14:35:06.019Z,21.86
2022-08-16T14:37:35.309Z,20.93
2022-08-16T14:40:03.644Z,21.80
2022-08-16T14:42:31.129Z,20.97
2022-08-16T14:45:00.396Z,19.85
2022-08-16T14:47:34.112Z,18.74
2022-08-16T14:50:02.554Z,18.84
2022-08-16T14:52:54.086Z,18.89
2022-08-16T14:55:17.090Z,19.47
2022-08-16T14:57:44.518Z,19.30
2022-08-16T15:00:13.159Z,19.47
2022-08-16T15:02:42.989Z,19.03
2022-08-16T15:05:11.830Z,19.76
2022-08-16T15:07:44.954Z,20.28
2022-08-16T15:10:21.670Z,20.43
2022-08-16T15:12:56.264Z,19.97
2022-08-16T15:15:28.314Z,19.15
2022-08-16T15:17:57.356Z,19.31
2022-08-16T15:20:29.432Z,19.27
2022-08-16T15:22:58.109Z,19.37
2022-08-16T15:25:41.871Z,21.32
2022-08-16T15:28:30.701Z,21.26
2022-08-16T15:31:03.729Z,21.74
2022-08-16T15:33:34.552Z,22.56
2022-08-16T15:36:02.660Z,22.93
2022-08-16T15:38:56.866Z,23.39
2022-08-16T15:41:43.041Z,23.45
2022-08-16T15:44:17.925Z,23.54
2022-08-16T15:46:56.618Z,24.05
2022-08-16T15:49:34.860Z,24.10
2022-08-16T15:52:07.529Z,23.70
2022-08-16T15:54:51.395Z,24.27
2022-08-16T15:57:26.149Z,24.38
2022-08-16T15:59:55.976Z,25.18
2022-08-16T16:02:39.282Z,25.69
2022-08-16T16:05:09.841Z,25.81
2022-08-16T16:07:40.778Z,25.15
2022-08-16T16:10:13.192Z,25.42
2022-08-16T16:12:51.126Z,25.36
2022-08-16T16:15:29.423Z,25.08
2022-08-16T16:17:57.303Z,25.08
2022-08-16T16:20:27.967Z,25.55
2022-08-16T16:23:01.238Z,25.66
2022-08-16T16:25:29.983Z,25.60
2022-08-16T16:27:59.506Z,25.87
2022-08-16T16:30:38.039Z,27.08
2022-08-16T16:33:20.898Z,28.12
2022-08-16T16:35:55.281Z,27.86
2022-08-16T16:38:29.079Z,28.79
2022-08-16T16:40:58.010Z,29.11
2022-08-16T16:43:31.427Z,29.25
2022-08-16T16:45:59.580Z,29.23
2022-08-16T16:48:29.669Z,29.26
2022-08-16T16:51:08.714Z,29.59
2022-08-16T16:53:41.500Z,29.50
2022-08-16T16:56:19.814Z,29.87
2022-08-16T16:58:57.198Z,29.92
2022-08-16T17:01:35.134Z,30.17
2022-08-16T17:04:31.467Z,30.99
2022-08-16T17:07:00.431Z,31.12
2022-08-16T17:09:27.583Z,31.50
2022-08-16T17:11:55.886Z,32.12
2022-08-16T17:14:31.819Z,33.22
2022-08-16T17:16:59.537Z,35.16
2022-08-16T17:19:31.723Z,35.93
2022-08-16T17:21:59.772Z,36.84
2022-08-16T17:24:31.380Z,37.28
2022-08-16T17:27:08.657Z,37.25
2022-08-16T17:29:45.931Z,36.90
2022-08-16T17:32:44.567Z,37.02
2022-08-16T17:35:10.828Z,36.93
2022-08-16T17:37:50.918Z,37.29
2022-08-16T17:40:46.840Z,37.84
2022-08-16T17:43:20.049Z,37.80
2022-08-16T17:45:47.738Z,38.18
2022-08-16T17:48:15.371Z,37.58
2022-08-16T17:50:43.183Z,37.50
2022-08-16T17:53:11.261Z,37.75
2022-08-16T17:55:42.168Z,37.74
2022-08-16T17:58:23.249Z,37.70
2022-08-16T18:00:54.371Z,37.84
2022-08-16T18:04:06.865Z,37.80
2022-08-16T18:06:15.801Z,38.62
2022-08-16T18:08:42.998Z,38.32
2022-08-16T18:11:10.657Z,38.24
2022-08-16T18:13:43.397Z,38.59
2022-08-16T18:16:12.139Z,38.77
2022-08-16T18:18:39.099Z,39.13
2022-08-16T18:21:24.746Z,38.73
2022-08-16T18:23:51.969Z,38.64
2022-08-16T18:26:18.976Z,38.48
2022-08-16T18:28:46.072Z,38.87
2022-08-16T18:31:13.039Z,38.63
2022-08-16T18:33:43.321Z,39.00
2022-08-16T18:36:21.265Z,39.03
2022-08-16T18:38:50.400Z,39.23
2022-08-16T18:41:18.245Z,39.01
2022-08-16T18:44:22.422Z,39.02
2022-08-16T18:46:32.641Z,39.13
2022-08-16T18:49:01.340Z,39.31
2022-08-16T18:51:28.379Z,39.49
2022-08-16T18:53:55.328Z,39.49
2022-08-16T18:56:22.494Z,39.49
2022-08-16T18:58:49.557Z,39.31
2022-08-16T19:01:16.814Z,39.55
2022-08-16T19:03:44.010Z,39.51
2022-08-16T19:06:14.216Z,39.46
2022-08-16T19:08:44.852Z,39.36
2022-08-16T19:11:15.282Z,39.29
2022-08-16T19:13:44.533Z,39.55
2022-08-16T19:16:13.148Z,39.20
2022-08-16T19:18:40.277Z,39.45
2022-08-16T19:21:08.759Z,39.44
2022-08-16T19:23:37.419Z,39.53
2022-08-16T19:26:24.586Z,39.98
2022-08-16T19:28:58.386Z,39.80
2022-08-16T19:31:30.174Z,39.72
2022-08-16T19:33:57.985Z,39.63
2022-08-16T19:36:35.522Z,39.15
2022-08-16T19:39:10.092Z,39.41
2022-08-16T19:41:40.010Z,39.38
2022-08-16T19:44:08.098Z,39.12
2022-08-16T19:46:35.223Z,39.57
2022-08-16T19:49:02.464Z,39.61
2022-08-16T19:51:29.754Z,39.56
2022-08-16T19:53:56.840Z,39.97
2022-08-16T19:56:25.990Z,40.01
2022-08-16T19:59:18.263Z,40.11
2022-08-16T20:01:42.747Z,40.22
2022-08-16T20:04:12.969Z,40.69
2022-08-16T20:06:41.276Z,40.94
2022-08-16T20:09:08.111Z,40.98
2022-08-16T20:11:37.463Z,40.60
2022-08-16T20:14:05.786Z,40.97
2022-08-16T20:16:32.939Z,41.30
2022-08-16T20:19:00.150Z,40.68
2022-08-16T20:21:27.081Z,40.88
2022-08-16T20:24:09.979Z,40.88
2022-08-16T20:26:41.380Z,40.65
2022-08-16T20:29:08.400Z,41.86
2022-08-16T20:31:35.344Z,41.55
2022-08-16T20:34:02.440Z,41.41
2022-08-16T20:36:30.112Z,41.78
2022-08-16T20:38:59.709Z,42.36
2022-08-16T20:41:27.300Z,42.43
2022-08-16T20:43:55.154Z,42.34
2022-08-16T20:46:22.442Z,42.44
2022-08-16T20:48:49.641Z,42.96
2022-08-16T20:51:16.880Z,42.69
2022-08-16T20:53:44.241Z,42.90
2022-08-16T20:56:12.291Z,43.24
2022-08-16T20:58:39.253Z,43.67
2022-08-16T21:01:07.499Z,43.54
2022-08-16T21:03:35.061Z,43.45
2022-08-16T21:06:02.873Z,43.82
2022-08-16T21:08:52.189Z,44.05
2022-08-16T21:11:17.590Z,44.25
2022-08-16T21:13:44.573Z,44.26
2022-08-16T21:16:11.634Z,44.33
2022-08-16T21:18:38.901Z,44.03
2022-08-16T21:21:05.870Z,44.26
2022-08-16T21:23:33.289Z,44.04
2022-08-16T21:26:00.360Z,43.67
2022-08-16T21:28:40.214Z,44.02
2022-08-16T21:31:10.000Z,44.35
2022-08-16T21:33:37.140Z,44.35
2022-08-16T21:36:04.445Z,43.83
2022-08-16T21:38:31.498Z,44.34
2022-08-16T21:41:00.143Z,44.01
2022-08-16T21:43:31.995Z,44.48
2022-08-16T21:46:00.363Z,44.58
2022-08-16T21:48:34.000Z,44.35
2022-08-16T21:51:12.022Z,44.62
2022-08-16T21:53:39.221Z,44.25
2022-08-16T21:56:07.864Z,43.98
2022-08-16T21:58:39.781Z,44.68
2022-08-16T22:01:06.980Z,45.23
2022-08-16T22:03:34.050Z,45.43
2022-08-16T22:06:13.188Z,45.36
2022-08-16T22:08:49.227Z,45.45
2022-08-16T22:11:23.863Z,45.25
2022-08-16T22:13:57.840Z,45.03
2022-08-16T22:16:32.642Z,45.07
2022-08-16T22:19:01.581Z,44.98
2022-08-16T22:21:29.450Z,44.57
2022-08-16T22:23:58.606Z,44.65
2022-08-16T22:26:32.302Z,44.85
2022-08-16T22:29:08.780Z,44.66
2022-08-16T22:31:37.646Z,44.80
2022-08-16T22:34:05.200Z,44.52
2022-08-16T22:36:33.241Z,44.76
2022-08-16T22:39:03.782Z,45.40
2022-08-16T22:41:32.682Z,45.97
2022-08-16T22:44:01.461Z,46.14
2022-08-16T22:46:29.372Z,46.38
2022-08-16T22:48:56.441Z,46.62
2022-08-16T22:51:26.693Z,46.47
2022-08-16T22:53:54.860Z,46.30
2022-08-16T22:56:23.201Z,46.48
2022-08-16T22:58:50.340Z,46.59
2022-08-16T23:01:19.425Z,47.08
2022-08-16T23:03:46.481Z,47.57
2022-08-16T23:06:14.854Z,47.60
2022-08-16T23:08:43.221Z,48.15
2022-08-16T23:11:20.482Z,48.33
2022-08-16T23:13:49.833Z,47.72
2022-08-16T23:16:33.926Z,47.59
2022-08-16T23:19:08.310Z,47.68
2022-08-16T23:21:37.378Z,47.35
2022-08-16T23:24:05.121Z,47.47
2022-08-16T23:26:47.204Z,47.32
2022-08-16T23:29:26.594Z,47.33
2022-08-16T23:32:08.559Z,47.19
2022-08-16T23:34:35.590Z,47.06
2022-08-16T23:37:02.510Z,47.03
2022-08-16T23:39:29.724Z,47.42
2022-08-16T23:41:57.003Z,47.85
2022-08-16T23:44:56.368Z,48.03
2022-08-16T23:47:11.143Z,47.77
2022-08-16T23:49:56.030Z,47.76
2022-08-16T23:52:42.124Z,48.03
2022-08-16T23:55:12.590Z,47.88
2022-08-16T23:57:39.651Z,48.00
